sensor_id;sensor_type;location;lat;lon;timestamp;temperature;humidity
12827;DHT22;66927;48.812;9.118;2024-01-11T00:01:10;-1.40;99.90
12827;DHT22;66927;48.812;9.118;2024-01-11T00:03:35;-1.50;99.90
12827;DHT22;66927;48.812;9.118;2024-01-11T00:06:02;-1.50;99.90
12827;DHT22;66927;48.812;9.118;2024-01-11T00:08:29;-1.50;99.90
12827;DHT22;66927;48.812;9.118;2024-01-11T00:10:55;-1.50;99.90
12827;DHT22;66927;48.812;9.118;2024-01-11T00:13:21;-1.40;99.90
12827;DHT22;66927;48.812;9.118;2024-01-11T00:15:46;-1.60;99.90
12827;DHT22;66927;48.812;9.118;2024-01-11T00:18:12;-1.60;99.90
12827;DHT22;66927;48.812;9.118;2024-01-11T00:20:38;-1.60;99.90
12827;DHT22;66927;48.812;9.118;2024-01-11T00:23:03;-1.60;99.90
12827;DHT22;66927;48.812;9.118;2024-01-11T00:25:29;-1.60;99.90
12827;DHT22;66927;48.812;9.118;2024-01-11T00:27:54;-1.50;99.90
12827;DHT22;66927;48.812;9.118;2024-01-11T00:30:20;-1.70;99.90
12827;DHT22;66927;48.812;9.118;2024-01-11T00:32:46;-1.70;99.90
12827;DHT22;66927;48.812;9.118;2024-01-11T00:35:11;-1.60;99.90
12827;DHT22;66927;48.812;9.118;2024-01-11T00:37:37;-1.60;99.90
12827;DHT22;66927;48.812;9.118;2024-01-11T00:40:03;-1.80;99.90
12827;DHT22;66927;48.812;9.118;2024-01-11T00:42:30;-1.70;99.90
12827;DHT22;66927;48.812;9.118;2024-01-11T00:44:55;-1.70;99.90
12827;DHT22;66927;48.812;9.118;2024-01-11T00:47:23;-1.80;99.90
12827;DHT22;66927;48.812;9.118;2024-01-11T00:49:48;-1.80;99.90
12827;DHT22;66927;48.812;9.118;2024-01-11T00:52:14;-1.80;99.90
12827;DHT22;66927;48.812;9.118;2024-01-11T00:54:39;-1.80;99.90
12827;DHT22;66927;48.812;9.118;2024-01-11T00:57:06;-1.70;99.90
12827;DHT22;66927;48.812;9.118;2024-01-11T00:59:31;-1.60;99.90
12827;DHT22;66927;48.812;9.118;2024-01-11T01:01:57;-1.70;99.90
12827;DHT22;66927;48.812;9.118;2024-01-11T01:04:23;-1.70;99.90
12827;DHT22;66927;48.812;9.118;2024-01-11T01:06:48;-1.80;99.90
12827;DHT22;66927;48.812;9.118;2024-01-11T01:09:14;-1.80;99.90
12827;DHT22;66927;48.812;9.118;2024-01-11T01:11:40;-1.80;99.90
12827;DHT22;66927;48.812;9.118;2024-01-11T01:14:06;-1.90;99.90
12827;DHT22;66927;48.812;9.118;2024-01-11T01:16:31;-1.90;99.90
12827;DHT22;66927;48.812;9.118;2024-01-11T01:18:57;-1.80;99.90
12827;DHT22;66927;48.812;9.118;2024-01-11T01:21:23;-1.80;99.90
12827;DHT22;66927;48.812;9.118;2024-01-11T01:23:50;-1.90;99.90
12827;DHT22;66927;48.812;9.118;2024-01-11T01:26:15;-1.90;99.90
12827;DHT22;66927;48.812;9.118;2024-01-11T01:28:41;-1.70;99.90
12827;DHT22;66927;48.812;9.118;2024-01-11T01:31:07;-1.90;99.90
12827;DHT22;66927;48.812;9.118;2024-01-11T01:33:32;-1.90;99.90
12827;DHT22;66927;48.812;9.118;2024-01-11T01:35:58;-1.90;99.90
12827;DHT22;66927;48.812;9.118;2024-01-11T01:38:23;-1.90;99.90
12827;DHT22;66927;48.812;9.118;2024-01-11T01:40:49;-1.90;99.90
12827;DHT22;66927;48.812;9.118;2024-01-11T01:43:15;-1.90;99.90
12827;DHT22;66927;48.812;9.118;2024-01-11T01:45:40;-1.90;99.90
12827;DHT22;66927;48.812;9.118;2024-01-11T01:48:07;-2.00;99.90
12827;DHT22;66927;48.812;9.118;2024-01-11T01:50:33;-1.90;99.90
12827;DHT22;66927;48.812;9.118;2024-01-11T01:52:59;-1.90;99.90
12827;DHT22;66927;48.812;9.118;2024-01-11T01:55:26;-1.90;99.90
12827;DHT22;66927;48.812;9.118;2024-01-11T01:57:53;-1.90;99.90
12827;DHT22;66927;48.812;9.118;2024-01-11T02:00:20;-2.00;99.90
12827;DHT22;66927;48.812;9.118;2024-01-11T02:02:46;-2.00;99.90
12827;DHT22;66927;48.812;9.118;2024-01-11T02:05:16;-2.00;99.90
12827;DHT22;66927;48.812;9.118;2024-01-11T02:07:43;-2.00;99.90
12827;DHT22;66927;48.812;9.118;2024-01-11T02:10:09;-2.00;99.90
12827;DHT22;66927;48.812;9.118;2024-01-11T02:12:36;-2.00;99.90
12827;DHT22;66927;48.812;9.118;2024-01-11T02:15:03;-2.10;99.90
12827;DHT22;66927;48.812;9.118;2024-01-11T02:17:30;-2.10;99.90
12827;DHT22;66927;48.812;9.118;2024-01-11T02:19:56;-2.00;99.90
12827;DHT22;66927;48.812;9.118;2024-01-11T02:22:27;-2.00;99.90
12827;DHT22;66927;48.812;9.118;2024-01-11T02:24:55;-2.00;99.90
12827;DHT22;66927;48.812;9.118;2024-01-11T02:27:23;-2.00;99.90
12827;DHT22;66927;48.812;9.118;2024-01-11T02:29:49;-2.00;99.90
12827;DHT22;66927;48.812;9.118;2024-01-11T02:32:15;-2.00;99.90
12827;DHT22;66927;48.812;9.118;2024-01-11T02:34:41;-2.10;99.90
12827;DHT22;66927;48.812;9.118;2024-01-11T02:37:07;-1.90;99.90
12827;DHT22;66927;48.812;9.118;2024-01-11T02:39:33;-2.20;99.90
12827;DHT22;66927;48.812;9.118;2024-01-11T02:42:00;-2.20;99.90
12827;DHT22;66927;48.812;9.118;2024-01-11T02:44:26;-2.20;99.90
12827;DHT22;66927;48.812;9.118;2024-01-11T02:46:51;-2.20;99.90
12827;DHT22;66927;48.812;9.118;2024-01-11T02:49:17;-2.20;99.90
12827;DHT22;66927;48.812;9.118;2024-01-11T02:51:43;-2.30;99.90
12827;DHT22;66927;48.812;9.118;2024-01-11T02:54:08;-2.40;99.90
12827;DHT22;66927;48.812;9.118;2024-01-11T02:56:34;-2.40;99.90
12827;DHT22;66927;48.812;9.118;2024-01-11T02:59:00;-2.30;99.90
12827;DHT22;66927;48.812;9.118;2024-01-11T03:01:26;-2.20;99.90
12827;DHT22;66927;48.812;9.118;2024-01-11T03:03:52;-2.20;99.90
12827;DHT22;66927;48.812;9.118;2024-01-11T03:06:18;-2.20;99.90
12827;DHT22;66927;48.812;9.118;2024-01-11T03:08:47;-2.20;99.90
12827;DHT22;66927;48.812;9.118;2024-01-11T03:11:14;-2.30;99.90
12827;DHT22;66927;48.812;9.118;2024-01-11T03:13:39;-2.20;99.90
12827;DHT22;66927;48.812;9.118;2024-01-11T03:16:05;-2.20;99.90
12827;DHT22;66927;48.812;9.118;2024-01-11T03:18:31;-2.20;99.90
12827;DHT22;66927;48.812;9.118;2024-01-11T03:20:57;-2.20;99.90
12827;DHT22;66927;48.812;9.118;2024-01-11T03:23:23;-2.20;99.90
12827;DHT22;66927;48.812;9.118;2024-01-11T03:25:48;-2.20;99.90
12827;DHT22;66927;48.812;9.118;2024-01-11T03:28:14;-2.20;99.90
12827;DHT22;66927;48.812;9.118;2024-01-11T03:30:40;-2.10;99.90
12827;DHT22;66927;48.812;9.118;2024-01-11T03:33:06;-2.30;99.90
12827;DHT22;66927;48.812;9.118;2024-01-11T03:35:32;-2.30;99.90
12827;DHT22;66927;48.812;9.118;2024-01-11T03:37:58;-2.30;99.90
12827;DHT22;66927;48.812;9.118;2024-01-11T03:40:24;-2.30;99.90
12827;DHT22;66927;48.812;9.118;2024-01-11T03:42:50;-2.30;99.90
12827;DHT22;66927;48.812;9.118;2024-01-11T03:45:18;-2.30;99.90
12827;DHT22;66927;48.812;9.118;2024-01-11T03:47:44;-2.30;99.90
12827;DHT22;66927;48.812;9.118;2024-01-11T03:50:10;-2.30;99.90
12827;DHT22;66927;48.812;9.118;2024-01-11T03:52:36;-2.30;99.90
12827;DHT22;66927;48.812;9.118;2024-01-11T03:55:02;-2.30;99.90
12827;DHT22;66927;48.812;9.118;2024-01-11T03:57:27;-2.30;99.90
12827;DHT22;66927;48.812;9.118;2024-01-11T03:59:53;-2.30;99.90
12827;DHT22;66927;48.812;9.118;2024-01-11T04:02:19;-2.30;99.90
12827;DHT22;66927;48.812;9.118;2024-01-11T04:04:44;-2.30;99.90
12827;DHT22;66927;48.812;9.118;2024-01-11T04:07:10;-2.40;99.90
12827;DHT22;66927;48.812;9.118;2024-01-11T04:09:37;-2.40;99.90
12827;DHT22;66927;48.812;9.118;2024-01-11T04:12:04;-2.40;99.90
12827;DHT22;66927;48.812;9.118;2024-01-11T04:14:30;-2.40;99.90
12827;DHT22;66927;48.812;9.118;2024-01-11T04:16:56;-2.50;99.90
12827;DHT22;66927;48.812;9.118;2024-01-11T04:19:22;-2.50;99.90
12827;DHT22;66927;48.812;9.118;2024-01-11T04:21:47;-2.50;99.90
12827;DHT22;66927;48.812;9.118;2024-01-11T04:24:13;-2.50;99.90
12827;DHT22;66927;48.812;9.118;2024-01-11T04:26:38;-2.50;99.90
12827;DHT22;66927;48.812;9.118;2024-01-11T04:29:04;-2.50;99.90
12827;DHT22;66927;48.812;9.118;2024-01-11T04:31:30;-2.50;99.90
12827;DHT22;66927;48.812;9.118;2024-01-11T04:33:58;-2.60;99.90
12827;DHT22;66927;48.812;9.118;2024-01-11T04:36:23;-2.60;99.90
12827;DHT22;66927;48.812;9.118;2024-01-11T04:38:49;-2.60;99.90
12827;DHT22;66927;48.812;9.118;2024-01-11T04:41:15;-2.60;99.90
12827;DHT22;66927;48.812;9.118;2024-01-11T04:43:42;-2.60;99.90
12827;DHT22;66927;48.812;9.118;2024-01-11T04:46:19;-2.60;99.90
12827;DHT22;66927;48.812;9.118;2024-01-11T04:48:45;-2.60;99.90
12827;DHT22;66927;48.812;9.118;2024-01-11T04:51:13;-2.60;99.90
12827;DHT22;66927;48.812;9.118;2024-01-11T04:53:39;-2.50;99.90
12827;DHT22;66927;48.812;9.118;2024-01-11T04:56:14;-2.60;99.90
12827;DHT22;66927;48.812;9.118;2024-01-11T04:58:41;-2.60;99.90
12827;DHT22;66927;48.812;9.118;2024-01-11T05:01:07;-2.50;99.90
12827;DHT22;66927;48.812;9.118;2024-01-11T05:03:36;-2.50;99.90
12827;DHT22;66927;48.812;9.118;2024-01-11T05:06:02;-2.50;99.90
12827;DHT22;66927;48.812;9.118;2024-01-11T05:08:28;-2.50;99.90
12827;DHT22;66927;48.812;9.118;2024-01-11T05:10:54;-2.50;99.90
12827;DHT22;66927;48.812;9.118;2024-01-11T05:13:20;-2.50;99.90
12827;DHT22;66927;48.812;9.118;2024-01-11T05:15:49;-2.50;99.90
12827;DHT22;66927;48.812;9.118;2024-01-11T05:18:15;-2.50;99.90
12827;DHT22;66927;48.812;9.118;2024-01-11T05:20:40;-2.60;99.90
12827;DHT22;66927;48.812;9.118;2024-01-11T05:23:06;-2.70;99.90
12827;DHT22;66927;48.812;9.118;2024-01-11T05:25:32;-2.70;99.90
12827;DHT22;66927;48.812;9.118;2024-01-11T05:28:01;-2.80;99.90
12827;DHT22;66927;48.812;9.118;2024-01-11T05:30:27;-2.70;99.90
12827;DHT22;66927;48.812;9.118;2024-01-11T05:32:53;-2.80;99.90
12827;DHT22;66927;48.812;9.118;2024-01-11T05:35:19;-2.80;99.90
12827;DHT22;66927;48.812;9.118;2024-01-11T05:37:45;-2.70;99.90
12827;DHT22;66927;48.812;9.118;2024-01-11T05:40:11;-2.70;99.90
12827;DHT22;66927;48.812;9.118;2024-01-11T05:42:36;-2.70;99.90
12827;DHT22;66927;48.812;9.118;2024-01-11T05:45:04;-2.70;99.90
12827;DHT22;66927;48.812;9.118;2024-01-11T05:47:30;-2.70;99.90
12827;DHT22;66927;48.812;9.118;2024-01-11T05:49:56;-2.70;99.90
12827;DHT22;66927;48.812;9.118;2024-01-11T05:52:22;-2.70;99.90
12827;DHT22;66927;48.812;9.118;2024-01-11T05:54:47;-2.70;99.90
12827;DHT22;66927;48.812;9.118;2024-01-11T05:57:13;-2.70;99.90
12827;DHT22;66927;48.812;9.118;2024-01-11T05:59:46;-2.80;99.90
12827;DHT22;66927;48.812;9.118;2024-01-11T06:02:12;-2.80;99.90
12827;DHT22;66927;48.812;9.118;2024-01-11T06:04:39;-2.90;99.90
12827;DHT22;66927;48.812;9.118;2024-01-11T06:07:05;-3.00;99.90
12827;DHT22;66927;48.812;9.118;2024-01-11T06:13:06;-2.90;99.90
12827;DHT22;66927;48.812;9.118;2024-01-11T06:15:32;-2.80;99.90
12827;DHT22;66927;48.812;9.118;2024-01-11T06:17:58;-2.80;99.90
12827;DHT22;66927;48.812;9.118;2024-01-11T06:20:23;-2.80;99.90
12827;DHT22;66927;48.812;9.118;2024-01-11T06:22:49;-2.80;99.90
12827;DHT22;66927;48.812;9.118;2024-01-11T06:25:15;-2.80;99.90
12827;DHT22;66927;48.812;9.118;2024-01-11T06:27:42;-2.80;99.90
12827;DHT22;66927;48.812;9.118;2024-01-11T06:30:09;-2.80;99.90
12827;DHT22;66927;48.812;9.118;2024-01-11T06:32:35;-2.80;99.90
12827;DHT22;66927;48.812;9.118;2024-01-11T06:35:01;-2.80;99.90
12827;DHT22;66927;48.812;9.118;2024-01-11T06:37:28;-2.80;99.90
12827;DHT22;66927;48.812;9.118;2024-01-11T06:39:54;-2.80;99.90
12827;DHT22;66927;48.812;9.118;2024-01-11T06:42:19;-2.90;99.90
12827;DHT22;66927;48.812;9.118;2024-01-11T06:44:45;-3.00;99.90
12827;DHT22;66927;48.812;9.118;2024-01-11T06:47:11;-3.00;99.90
12827;DHT22;66927;48.812;9.118;2024-01-11T06:49:40;-3.00;99.90
12827;DHT22;66927;48.812;9.118;2024-01-11T06:52:06;-3.10;99.90
12827;DHT22;66927;48.812;9.118;2024-01-11T06:54:31;-3.00;99.90
12827;DHT22;66927;48.812;9.118;2024-01-11T06:56:57;-3.10;99.90
12827;DHT22;66927;48.812;9.118;2024-01-11T06:59:24;-3.10;99.90
12827;DHT22;66927;48.812;9.118;2024-01-11T07:01:51;-3.10;99.90
12827;DHT22;66927;48.812;9.118;2024-01-11T07:04:16;-3.00;99.90
12827;DHT22;66927;48.812;9.118;2024-01-11T07:06:43;-3.00;99.90
12827;DHT22;66927;48.812;9.118;2024-01-11T07:09:11;-3.00;99.90
12827;DHT22;66927;48.812;9.118;2024-01-11T07:11:37;-3.00;99.90
12827;DHT22;66927;48.812;9.118;2024-01-11T07:14:03;-3.00;99.90
12827;DHT22;66927;48.812;9.118;2024-01-11T07:16:30;-3.00;99.90
12827;DHT22;66927;48.812;9.118;2024-01-11T07:18:56;-3.00;99.90
12827;DHT22;66927;48.812;9.118;2024-01-11T07:21:22;-3.00;99.90
12827;DHT22;66927;48.812;9.118;2024-01-11T07:24:00;-3.00;99.90
12827;DHT22;66927;48.812;9.118;2024-01-11T07:26:28;-3.00;99.90
12827;DHT22;66927;48.812;9.118;2024-01-11T07:28:54;-3.00;99.90
12827;DHT22;66927;48.812;9.118;2024-01-11T07:31:22;-2.90;99.90
12827;DHT22;66927;48.812;9.118;2024-01-11T07:33:48;-2.90;99.90
12827;DHT22;66927;48.812;9.118;2024-01-11T07:36:14;-2.90;99.90
12827;DHT22;66927;48.812;9.118;2024-01-11T07:38:39;-2.90;99.90
12827;DHT22;66927;48.812;9.118;2024-01-11T07:41:05;-2.90;99.90
12827;DHT22;66927;48.812;9.118;2024-01-11T07:43:31;-2.90;99.90
12827;DHT22;66927;48.812;9.118;2024-01-11T07:46:03;-3.00;99.90
12827;DHT22;66927;48.812;9.118;2024-01-11T07:48:31;-3.00;99.90
12827;DHT22;66927;48.812;9.118;2024-01-11T07:50:58;-3.00;99.90
12827;DHT22;66927;48.812;9.118;2024-01-11T07:53:44;-3.00;99.90
12827;DHT22;66927;48.812;9.118;2024-01-11T07:56:09;-3.00;99.90
12827;DHT22;66927;48.812;9.118;2024-01-11T07:58:35;-3.00;99.90
12827;DHT22;66927;48.812;9.118;2024-01-11T08:01:03;-3.00;99.90
12827;DHT22;66927;48.812;9.118;2024-01-11T08:03:29;-3.00;99.90
12827;DHT22;66927;48.812;9.118;2024-01-11T08:05:55;-3.10;99.90
12827;DHT22;66927;48.812;9.118;2024-01-11T08:08:21;-3.00;99.90
12827;DHT22;66927;48.812;9.118;2024-01-11T08:10:47;-3.00;99.90
12827;DHT22;66927;48.812;9.118;2024-01-11T08:13:15;-3.00;99.90
12827;DHT22;66927;48.812;9.118;2024-01-11T08:15:41;-3.00;99.90
12827;DHT22;66927;48.812;9.118;2024-01-11T08:18:07;-3.00;99.90
12827;DHT22;66927;48.812;9.118;2024-01-11T08:20:34;-2.90;99.90
12827;DHT22;66927;48.812;9.118;2024-01-11T08:23:00;-2.80;99.90
12827;DHT22;66927;48.812;9.118;2024-01-11T08:25:25;-2.90;99.90
12827;DHT22;66927;48.812;9.118;2024-01-11T08:27:51;-2.90;99.90
12827;DHT22;66927;48.812;9.118;2024-01-11T08:30:16;-2.80;99.90
12827;DHT22;66927;48.812;9.118;2024-01-11T08:32:42;-2.70;99.90
12827;DHT22;66927;48.812;9.118;2024-01-11T08:35:11;-2.80;99.90
12827;DHT22;66927;48.812;9.118;2024-01-11T08:37:37;-2.80;99.90
12827;DHT22;66927;48.812;9.118;2024-01-11T08:40:05;-2.80;99.90
12827;DHT22;66927;48.812;9.118;2024-01-11T08:42:32;-2.80;99.90
12827;DHT22;66927;48.812;9.118;2024-01-11T08:44:58;-2.90;99.90
12827;DHT22;66927;48.812;9.118;2024-01-11T08:47:25;-2.90;99.90
12827;DHT22;66927;48.812;9.118;2024-01-11T08:49:51;-2.80;99.90
12827;DHT22;66927;48.812;9.118;2024-01-11T08:52:16;-2.80;99.90
12827;DHT22;66927;48.812;9.118;2024-01-11T08:54:42;-2.80;99.90
12827;DHT22;66927;48.812;9.118;2024-01-11T08:57:07;-2.90;99.90
12827;DHT22;66927;48.812;9.118;2024-01-11T08:59:33;-2.80;99.90
12827;DHT22;66927;48.812;9.118;2024-01-11T09:01:59;-2.70;99.90
12827;DHT22;66927;48.812;9.118;2024-01-11T09:04:24;-2.70;99.90
12827;DHT22;66927;48.812;9.118;2024-01-11T09:06:50;-2.70;99.90
12827;DHT22;66927;48.812;9.118;2024-01-11T09:09:16;-2.80;99.90
12827;DHT22;66927;48.812;9.118;2024-01-11T09:11:42;-2.80;99.90
12827;DHT22;66927;48.812;9.118;2024-01-11T09:14:08;-2.60;99.90
12827;DHT22;66927;48.812;9.118;2024-01-11T09:16:36;-2.60;99.90
12827;DHT22;66927;48.812;9.118;2024-01-11T09:19:02;-2.60;99.90
12827;DHT22;66927;48.812;9.118;2024-01-11T09:21:28;-2.50;99.90
12827;DHT22;66927;48.812;9.118;2024-01-11T09:23:53;-2.50;99.90
12827;DHT22;66927;48.812;9.118;2024-01-11T09:26:19;-2.40;99.90
12827;DHT22;66927;48.812;9.118;2024-01-11T09:28:46;-2.30;99.90
12827;DHT22;66927;48.812;9.118;2024-01-11T09:31:12;-2.20;99.90
12827;DHT22;66927;48.812;9.118;2024-01-11T09:33:38;-2.10;99.90
12827;DHT22;66927;48.812;9.118;2024-01-11T09:36:04;-2.10;99.90
12827;DHT22;66927;48.812;9.118;2024-01-11T09:38:29;-2.30;99.90
12827;DHT22;66927;48.812;9.118;2024-01-11T09:41:09;-2.20;99.90
12827;DHT22;66927;48.812;9.118;2024-01-11T09:43:36;-2.20;99.90
12827;DHT22;66927;48.812;9.118;2024-01-11T09:46:04;-2.00;99.90
12827;DHT22;66927;48.812;9.118;2024-01-11T09:48:34;-1.90;99.90
12827;DHT22;66927;48.812;9.118;2024-01-11T09:51:02;-1.90;99.90
12827;DHT22;66927;48.812;9.118;2024-01-11T09:53:32;-1.90;99.90
12827;DHT22;66927;48.812;9.118;2024-01-11T09:55:58;-1.90;99.90
12827;DHT22;66927;48.812;9.118;2024-01-11T09:58:25;-1.70;99.90
12827;DHT22;66927;48.812;9.118;2024-01-11T10:00:54;-1.70;99.90
12827;DHT22;66927;48.812;9.118;2024-01-11T10:03:22;-1.60;99.90
12827;DHT22;66927;48.812;9.118;2024-01-11T10:05:49;-1.50;99.90
12827;DHT22;66927;48.812;9.118;2024-01-11T10:08:21;-1.40;99.90
12827;DHT22;66927;48.812;9.118;2024-01-11T10:10:47;-1.40;99.90
12827;DHT22;66927;48.812;9.118;2024-01-11T10:13:14;-1.40;99.90
12827;DHT22;66927;48.812;9.118;2024-01-11T10:15:43;-1.40;99.90
12827;DHT22;66927;48.812;9.118;2024-01-11T10:18:09;-1.40;99.90
12827;DHT22;66927;48.812;9.118;2024-01-11T10:20:35;-1.40;99.90
12827;DHT22;66927;48.812;9.118;2024-01-11T10:23:02;-1.30;99.90
12827;DHT22;66927;48.812;9.118;2024-01-11T10:25:28;-1.20;99.90
12827;DHT22;66927;48.812;9.118;2024-01-11T10:27:54;-1.00;99.90
12827;DHT22;66927;48.812;9.118;2024-01-11T10:30:20;-1.10;99.90
12827;DHT22;66927;48.812;9.118;2024-01-11T10:32:48;-0.90;99.90
12827;DHT22;66927;48.812;9.118;2024-01-11T10:35:15;-0.90;99.90
12827;DHT22;66927;48.812;9.118;2024-01-11T10:37:43;-0.80;99.90
12827;DHT22;66927;48.812;9.118;2024-01-11T10:40:10;-0.80;99.90
12827;DHT22;66927;48.812;9.118;2024-01-11T10:42:45;-0.70;99.90
12827;DHT22;66927;48.812;9.118;2024-01-11T10:45:19;-0.50;99.90
12827;DHT22;66927;48.812;9.118;2024-01-11T10:47:48;-0.40;99.90
12827;DHT22;66927;48.812;9.118;2024-01-11T10:50:16;-0.30;99.90
12827;DHT22;66927;48.812;9.118;2024-01-11T10:53:03;-0.30;99.90
12827;DHT22;66927;48.812;9.118;2024-01-11T10:55:34;-0.20;99.90
12827;DHT22;66927;48.812;9.118;2024-01-11T10:58:02;0.00;99.90
12827;DHT22;66927;48.812;9.118;2024-01-11T11:00:29;-0.20;99.90
12827;DHT22;66927;48.812;9.118;2024-01-11T11:02:58;-0.20;99.90
12827;DHT22;66927;48.812;9.118;2024-01-11T11:05:25;-0.10;99.90
12827;DHT22;66927;48.812;9.118;2024-01-11T11:07:54;-0.20;99.90
12827;DHT22;66927;48.812;9.118;2024-01-11T11:10:21;0.00;99.90
12827;DHT22;66927;48.812;9.118;2024-01-11T11:12:48;0.20;99.90
12827;DHT22;66927;48.812;9.118;2024-01-11T11:15:14;0.30;99.90
12827;DHT22;66927;48.812;9.118;2024-01-11T11:17:42;0.30;99.90
12827;DHT22;66927;48.812;9.118;2024-01-11T11:20:08;0.60;99.90
12827;DHT22;66927;48.812;9.118;2024-01-11T11:22:35;0.60;99.90
12827;DHT22;66927;48.812;9.118;2024-01-11T11:25:10;1.00;99.90
12827;DHT22;66927;48.812;9.118;2024-01-11T11:27:40;1.20;99.90
12827;DHT22;66927;48.812;9.118;2024-01-11T11:30:06;1.80;99.90
12827;DHT22;66927;48.812;9.118;2024-01-11T11:32:38;2.00;99.90
12827;DHT22;66927;48.812;9.118;2024-01-11T11:35:05;2.20;99.90
12827;DHT22;66927;48.812;9.118;2024-01-11T11:37:31;2.30;99.90
12827;DHT22;66927;48.812;9.118;2024-01-11T11:39:59;2.30;99.90
12827;DHT22;66927;48.812;9.118;2024-01-11T11:42:26;2.50;99.90
12827;DHT22;66927;48.812;9.118;2024-01-11T11:45:02;2.30;99.90
12827;DHT22;66927;48.812;9.118;2024-01-11T11:47:35;2.20;99.90
12827;DHT22;66927;48.812;9.118;2024-01-11T11:50:09;2.10;99.90
12827;DHT22;66927;48.812;9.118;2024-01-11T11:52:37;2.10;99.90
12827;DHT22;66927;48.812;9.118;2024-01-11T11:55:03;2.10;99.90
12827;DHT22;66927;48.812;9.118;2024-01-11T11:57:29;2.10;99.90
12827;DHT22;66927;48.812;9.118;2024-01-11T11:59:56;1.90;99.90
12827;DHT22;66927;48.812;9.118;2024-01-11T12:02:25;1.80;99.90
12827;DHT22;66927;48.812;9.118;2024-01-11T12:04:51;1.80;99.90
12827;DHT22;66927;48.812;9.118;2024-01-11T12:07:16;1.60;99.90
12827;DHT22;66927;48.812;9.118;2024-01-11T12:09:42;1.70;99.90
12827;DHT22;66927;48.812;9.118;2024-01-11T12:12:08;1.80;99.90
12827;DHT22;66927;48.812;9.118;2024-01-11T12:14:35;1.90;99.90
12827;DHT22;66927;48.812;9.118;2024-01-11T12:17:01;1.70;99.90
12827;DHT22;66927;48.812;9.118;2024-01-11T12:19:28;1.90;99.90
12827;DHT22;66927;48.812;9.118;2024-01-11T12:21:54;1.90;99.90
12827;DHT22;66927;48.812;9.118;2024-01-11T12:24:21;2.00;99.90
12827;DHT22;66927;48.812;9.118;2024-01-11T12:26:49;2.10;99.90
12827;DHT22;66927;48.812;9.118;2024-01-11T12:29:18;2.10;99.90
12827;DHT22;66927;48.812;9.118;2024-01-11T12:31:44;2.20;99.90
12827;DHT22;66927;48.812;9.118;2024-01-11T12:34:11;2.10;99.90
12827;DHT22;66927;48.812;9.118;2024-01-11T12:36:38;2.20;99.90
12827;DHT22;66927;48.812;9.118;2024-01-11T12:39:03;2.20;99.90
12827;DHT22;66927;48.812;9.118;2024-01-11T12:41:32;2.30;99.90
12827;DHT22;66927;48.812;9.118;2024-01-11T12:43:58;2.40;99.90
12827;DHT22;66927;48.812;9.118;2024-01-11T12:46:27;2.40;99.90
12827;DHT22;66927;48.812;9.118;2024-01-11T12:48:53;2.40;99.90
12827;DHT22;66927;48.812;9.118;2024-01-11T12:51:19;2.30;99.90
12827;DHT22;66927;48.812;9.118;2024-01-11T12:53:46;2.40;99.90
12827;DHT22;66927;48.812;9.118;2024-01-11T12:56:14;2.20;99.90
12827;DHT22;66927;48.812;9.118;2024-01-11T12:58:40;2.10;99.90
12827;DHT22;66927;48.812;9.118;2024-01-11T13:01:06;2.00;99.90
12827;DHT22;66927;48.812;9.118;2024-01-11T13:03:34;2.00;99.90
12827;DHT22;66927;48.812;9.118;2024-01-11T13:05:59;2.00;99.90
12827;DHT22;66927;48.812;9.118;2024-01-11T13:08:25;2.10;99.90
12827;DHT22;66927;48.812;9.118;2024-01-11T13:10:52;2.10;99.90
12827;DHT22;66927;48.812;9.118;2024-01-11T13:13:18;2.10;99.90
12827;DHT22;66927;48.812;9.118;2024-01-11T13:15:45;2.20;99.90
12827;DHT22;66927;48.812;9.118;2024-01-11T13:18:11;2.20;99.90
12827;DHT22;66927;48.812;9.118;2024-01-11T13:20:37;2.10;99.90
12827;DHT22;66927;48.812;9.118;2024-01-11T13:23:21;2.00;99.90
12827;DHT22;66927;48.812;9.118;2024-01-11T13:25:48;1.90;99.90
12827;DHT22;66927;48.812;9.118;2024-01-11T13:28:18;1.90;99.90
12827;DHT22;66927;48.812;9.118;2024-01-11T13:30:45;1.90;99.90
12827;DHT22;66927;48.812;9.118;2024-01-11T13:33:11;1.80;99.90
12827;DHT22;66927;48.812;9.118;2024-01-11T13:35:38;1.70;99.90
12827;DHT22;66927;48.812;9.118;2024-01-11T13:38:04;1.80;99.90
12827;DHT22;66927;48.812;9.118;2024-01-11T13:40:31;1.70;99.90
12827;DHT22;66927;48.812;9.118;2024-01-11T13:42:58;1.70;99.90
12827;DHT22;66927;48.812;9.118;2024-01-11T13:45:24;1.60;99.90
12827;DHT22;66927;48.812;9.118;2024-01-11T13:47:51;1.60;99.90
12827;DHT22;66927;48.812;9.118;2024-01-11T13:50:19;1.50;99.90
12827;DHT22;66927;48.812;9.118;2024-01-11T13:52:45;1.60;99.90
12827;DHT22;66927;48.812;9.118;2024-01-11T13:55:11;1.40;99.90
12827;DHT22;66927;48.812;9.118;2024-01-11T13:57:37;1.40;99.90
12827;DHT22;66927;48.812;9.118;2024-01-11T14:00:04;1.40;99.90
12827;DHT22;66927;48.812;9.118;2024-01-11T14:02:30;1.30;99.90
12827;DHT22;66927;48.812;9.118;2024-01-11T14:04:58;1.30;99.90
12827;DHT22;66927;48.812;9.118;2024-01-11T14:07:24;1.20;99.90
12827;DHT22;66927;48.812;9.118;2024-01-11T14:09:51;1.20;99.90
12827;DHT22;66927;48.812;9.118;2024-01-11T14:12:17;1.30;99.90
12827;DHT22;66927;48.812;9.118;2024-01-11T14:14:43;1.30;99.90
12827;DHT22;66927;48.812;9.118;2024-01-11T14:17:09;1.20;99.90
12827;DHT22;66927;48.812;9.118;2024-01-11T14:19:35;1.10;99.90
12827;DHT22;66927;48.812;9.118;2024-01-11T14:22:01;1.10;99.90
12827;DHT22;66927;48.812;9.118;2024-01-11T14:24:26;1.10;99.90
12827;DHT22;66927;48.812;9.118;2024-01-11T14:26:52;1.30;99.90
12827;DHT22;66927;48.812;9.118;2024-01-11T14:29:18;1.10;99.90
12827;DHT22;66927;48.812;9.118;2024-01-11T14:31:44;1.10;99.90
12827;DHT22;66927;48.812;9.118;2024-01-11T14:34:10;1.10;99.90
12827;DHT22;66927;48.812;9.118;2024-01-11T14:36:36;1.00;99.90
12827;DHT22;66927;48.812;9.118;2024-01-11T14:39:02;1.00;99.90
12827;DHT22;66927;48.812;9.118;2024-01-11T14:41:30;1.00;99.90
12827;DHT22;66927;48.812;9.118;2024-01-11T14:43:56;1.00;99.90
12827;DHT22;66927;48.812;9.118;2024-01-11T14:46:22;1.00;99.90
12827;DHT22;66927;48.812;9.118;2024-01-11T14:48:48;1.10;99.90
12827;DHT22;66927;48.812;9.118;2024-01-11T14:51:14;0.90;99.90
12827;DHT22;66927;48.812;9.118;2024-01-11T14:53:39;0.90;99.90
12827;DHT22;66927;48.812;9.118;2024-01-11T14:56:05;0.90;99.90
12827;DHT22;66927;48.812;9.118;2024-01-11T14:58:31;1.10;99.90
12827;DHT22;66927;48.812;9.118;2024-01-11T15:00:57;0.90;99.90
12827;DHT22;66927;48.812;9.118;2024-01-11T15:03:23;1.00;99.90
12827;DHT22;66927;48.812;9.118;2024-01-11T15:05:51;0.90;99.90
12827;DHT22;66927;48.812;9.118;2024-01-11T15:08:18;0.90;99.90
12827;DHT22;66927;48.812;9.118;2024-01-11T15:10:44;0.90;99.90
12827;DHT22;66927;48.812;9.118;2024-01-11T15:13:10;0.70;99.90
12827;DHT22;66927;48.812;9.118;2024-01-11T15:15:36;0.80;99.90
12827;DHT22;66927;48.812;9.118;2024-01-11T15:18:02;0.80;99.90
12827;DHT22;66927;48.812;9.118;2024-01-11T15:20:28;0.80;99.90
12827;DHT22;66927;48.812;9.118;2024-01-11T15:22:54;0.80;99.90
12827;DHT22;66927;48.812;9.118;2024-01-11T15:25:19;0.70;99.90
12827;DHT22;66927;48.812;9.118;2024-01-11T15:27:46;0.60;99.90
12827;DHT22;66927;48.812;9.118;2024-01-11T15:30:12;0.60;99.90
12827;DHT22;66927;48.812;9.118;2024-01-11T15:32:39;0.60;99.90
12827;DHT22;66927;48.812;9.118;2024-01-11T15:35:05;0.60;99.90